Terminal Aerodrome Forecast
Issued by NWS

Current Version | Previous Version | Text Only | Print | Product List | Glossary Off
Versions: 1 2 3 4 5 6 7 8 9 10 11 12 13 14 15 16

000
FTUS41 KPBZ 250532
TAFMGW
TAF
KMGW 250532Z 2506/2606 VRB03KT 2SM BR SKC
      TEMPO 2506/2509 1/4SM FG BKN001
     FM251000 02002KT P6SM SKC=

USA.gov is the U.S. government's official web portal to all federal, state and local government web resources and services.